createdAt,value
2022-07-27T00:02:21.319Z,100.00
2022-07-27T00:04:52.025Z,100.00
2022-07-27T00:10:05.078Z,100.00
2022-07-27T00:12:35.517Z,100.00
2022-07-27T00:18:04.063Z,100.00
2022-07-27T00:23:18.760Z,100.00
2022-07-27T00:25:49.190Z,100.00
2022-07-27T00:28:19.575Z,100.00
2022-07-27T00:30:50.038Z,100.00
2022-07-27T00:33:32.678Z,100.00
2022-07-27T00:36:03.142Z,100.00
2022-07-27T00:38:36.626Z,100.00
2022-07-27T00:43:56.883Z,100.00
2022-07-27T00:49:27.175Z,100.00
2022-07-27T00:51:58.291Z,100.00
2022-07-27T00:54:31.464Z,100.00
2022-07-27T00:57:01.907Z,100.00
2022-07-27T00:59:32.827Z,100.00
2022-07-27T01:02:03.396Z,100.00
2022-07-27T01:04:34.082Z,100.00
2022-07-27T01:07:09.005Z,100.00
2022-07-27T01:09:54.961Z,100.00
2022-07-27T01:12:27.531Z,100.00
2022-07-27T01:15:00.009Z,100.00
2022-07-27T01:17:33.883Z,100.00
2022-07-27T01:20:04.294Z,100.00
2022-07-27T01:22:37.512Z,100.00
2022-07-27T01:25:09.595Z,100.00
2022-07-27T01:30:30.722Z,100.00
2022-07-27T01:33:05.973Z,100.00
2022-07-27T01:35:36.235Z,100.00
2022-07-27T01:40:49.424Z,100.00
2022-07-27T01:46:03.782Z,100.00
2022-07-27T01:48:34.263Z,100.00
2022-07-27T01:51:04.357Z,100.00
2022-07-27T01:56:59.573Z,100.00
2022-07-27T02:02:43.431Z,100.00
2022-07-27T02:12:23.574Z,100.00
2022-07-27T02:18:28.909Z,100.00
2022-07-27T02:31:45.063Z,100.00
2022-07-27T02:34:15.341Z,100.00
2022-07-27T02:39:58.474Z,100.00
2022-07-27T02:58:40.546Z,100.00
2022-07-27T03:01:10.770Z,100.00
2022-07-27T03:03:41.786Z,100.00
2022-07-27T03:06:12.352Z,100.00
2022-07-27T03:08:42.613Z,100.00
2022-07-27T03:11:12.598Z,100.00
2022-07-27T03:13:45.515Z,100.00
2022-07-27T03:16:15.633Z,100.00
2022-07-27T03:18:45.660Z,100.00
2022-07-27T03:21:15.840Z,100.00
2022-07-27T03:23:47.115Z,100.00
2022-07-27T03:26:18.237Z,100.00
2022-07-27T03:28:50.861Z,100.00
2022-07-27T03:31:20.856Z,100.00
2022-07-27T03:33:50.886Z,100.00
2022-07-27T03:36:21.628Z,100.00
2022-07-27T03:38:51.647Z,100.00
2022-07-27T03:41:22.249Z,100.00
2022-07-27T03:43:54.814Z,100.00
2022-07-27T03:46:24.797Z,100.00
2022-07-27T03:48:55.308Z,100.00
2022-07-27T03:51:25.411Z,100.00
2022-07-27T03:53:55.378Z,100.00
2022-07-27T03:56:25.409Z,100.00
2022-07-27T03:58:58.021Z,100.00
2022-07-27T04:01:28.062Z,100.00
2022-07-27T04:03:58.098Z,100.00
2022-07-27T04:06:28.566Z,100.00
2022-07-27T04:09:08.742Z,100.00
2022-07-27T04:11:50.708Z,100.00
2022-07-27T04:14:23.865Z,100.00
2022-07-27T04:16:53.902Z,100.00
2022-07-27T04:19:23.919Z,100.00
2022-07-27T04:21:53.906Z,100.00
2022-07-27T04:24:24.362Z,100.00
2022-07-27T04:26:54.411Z,100.00
2022-07-27T04:29:27.153Z,100.00
2022-07-27T04:31:57.317Z,100.00
2022-07-27T04:34:27.358Z,100.00
2022-07-27T04:36:57.366Z,100.00
2022-07-27T04:39:27.398Z,100.00
2022-07-27T04:41:57.409Z,100.00
2022-07-27T04:44:29.995Z,100.00
2022-07-27T04:46:59.961Z,100.00
2022-07-27T04:49:30.066Z,100.00
2022-07-27T04:52:00.091Z,100.00
2022-07-27T04:54:30.103Z,100.00
2022-07-27T04:57:00.104Z,100.00
2022-07-27T04:59:32.678Z,100.00
2022-07-27T05:02:02.593Z,100.00
2022-07-27T05:04:32.646Z,100.00
2022-07-27T05:07:02.981Z,100.00
2022-07-27T05:09:33.058Z,100.00
2022-07-27T05:12:03.129Z,100.00
2022-07-27T05:14:35.751Z,100.00
2022-07-27T05:17:06.842Z,100.00
2022-07-27T05:19:40.575Z,100.00
2022-07-27T05:22:11.190Z,98.66
2022-07-27T05:24:41.350Z,98.40
2022-07-27T05:27:12.262Z,98.04
2022-07-27T05:29:44.808Z,98.75
2022-07-27T05:32:15.011Z,95.37
2022-07-27T05:34:46.158Z,94.38
2022-07-27T05:37:16.577Z,92.13
2022-07-27T05:39:46.678Z,89.79
2022-07-27T05:42:16.699Z,88.48
2022-07-27T05:44:49.277Z,86.85
2022-07-27T05:47:19.476Z,87.20
2022-07-27T05:49:49.521Z,88.18
2022-07-27T05:52:20.592Z,86.86
2022-07-27T05:54:50.992Z,87.57
2022-07-27T05:57:20.982Z,88.45
2022-07-27T05:59:55.174Z,85.15
2022-07-27T06:02:25.175Z,84.51
2022-07-27T06:04:55.166Z,85.54
2022-07-27T06:07:37.700Z,84.41
2022-07-27T06:10:09.303Z,89.25
2022-07-27T06:12:43.821Z,88.99
2022-07-27T06:15:19.760Z,89.13
2022-07-27T06:17:52.683Z,88.04
2022-07-27T06:20:24.250Z,88.39
2022-07-27T06:22:57.331Z,86.08
2022-07-27T06:25:34.175Z,87.31
2022-07-27T06:28:06.880Z,88.99
2022-07-27T06:30:39.498Z,84.56
2022-07-27T06:33:09.455Z,82.92
2022-07-27T06:35:39.724Z,79.60
2022-07-27T06:38:10.099Z,79.50
2022-07-27T06:40:40.129Z,78.64
2022-07-27T06:43:10.198Z,75.32
2022-07-27T06:45:42.735Z,74.85
2022-07-27T06:48:12.713Z,74.08
2022-07-27T06:50:42.806Z,71.68
2022-07-27T06:53:13.603Z,71.84
2022-07-27T06:55:45.633Z,72.59
2022-07-27T06:58:15.765Z,69.67
2022-07-27T07:00:49.886Z,71.32
2022-07-27T07:03:19.946Z,70.68
2022-07-27T07:05:51.057Z,69.47
2022-07-27T07:08:22.399Z,66.30
2022-07-27T07:10:53.303Z,66.16
2022-07-27T07:13:23.713Z,65.38
2022-07-27T07:15:56.602Z,68.02
2022-07-27T07:18:27.340Z,69.85
2022-07-27T07:20:57.335Z,67.38
2022-07-27T07:23:27.290Z,66.27
2022-07-27T07:25:57.405Z,67.08
2022-07-27T07:28:27.429Z,65.79
2022-07-27T07:31:00.670Z,64.13
2022-07-27T07:33:30.863Z,61.95
2022-07-27T07:36:14.261Z,59.53
2022-07-27T07:38:44.897Z,61.26
2022-07-27T07:41:15.799Z,59.86
2022-07-27T07:43:45.880Z,59.10
2022-07-27T07:46:18.727Z,56.42
2022-07-27T07:48:48.969Z,54.21
2022-07-27T07:51:19.025Z,56.52
2022-07-27T07:53:49.147Z,53.36
2022-07-27T07:56:19.367Z,51.82
2022-07-27T07:58:49.339Z,51.52
2022-07-27T08:01:22.036Z,50.98
2022-07-27T08:03:52.906Z,52.01
2022-07-27T08:06:22.958Z,52.09
2022-07-27T08:08:53.103Z,52.09
2022-07-27T08:11:23.303Z,49.02
2022-07-27T08:13:53.718Z,47.83
2022-07-27T08:16:26.395Z,47.35
2022-07-27T08:18:56.441Z,46.04
2022-07-27T08:21:26.419Z,47.01
2022-07-27T08:24:01.276Z,46.69
2022-07-27T08:26:32.890Z,47.92
2022-07-27T08:29:11.221Z,46.32
2022-07-27T08:31:52.862Z,44.97
2022-07-27T08:34:23.559Z,44.81
2022-07-27T08:36:53.575Z,44.85
2022-07-27T08:40:05.446Z,45.88
2022-07-27T08:42:14.066Z,44.05
2022-07-27T08:44:44.987Z,44.58
2022-07-27T08:47:19.066Z,46.03
2022-07-27T08:49:50.175Z,46.25
2022-07-27T08:52:22.590Z,45.28
2022-07-27T08:54:53.186Z,44.91
2022-07-27T08:57:23.366Z,44.87
2022-07-27T08:59:56.886Z,44.45
2022-07-27T09:02:29.572Z,45.83
2022-07-27T09:05:00.513Z,45.09
2022-07-27T09:07:32.183Z,45.30
2022-07-27T09:10:03.122Z,45.64
2022-07-27T09:12:35.600Z,44.82
2022-07-27T09:15:18.091Z,46.54
2022-07-27T09:17:50.731Z,47.30
2022-07-27T09:20:23.475Z,47.58
2022-07-27T09:22:55.553Z,48.12
2022-07-27T09:26:01.695Z,48.05
2022-07-27T09:28:33.191Z,47.07
2022-07-27T09:31:09.561Z,47.95
2022-07-27T09:33:51.176Z,48.10
2022-07-27T09:36:23.362Z,49.64
2022-07-27T09:39:02.023Z,49.25
2022-07-27T09:41:45.149Z,48.01
2022-07-27T09:44:34.563Z,45.98
2022-07-27T09:47:26.892Z,45.43
2022-07-27T09:50:18.070Z,44.57
2022-07-27T09:52:48.954Z,45.27
2022-07-27T09:55:23.755Z,45.94
2022-07-27T09:57:56.321Z,46.10
2022-07-27T10:00:27.945Z,45.96
2022-07-27T10:02:58.843Z,43.48
2022-07-27T10:05:32.362Z,43.81
2022-07-27T10:08:02.356Z,41.57
2022-07-27T10:10:32.618Z,42.78
2022-07-27T10:13:02.835Z,42.99
2022-07-27T10:15:33.011Z,44.25
2022-07-27T10:18:11.294Z,46.66
2022-07-27T10:20:48.532Z,48.70
2022-07-27T10:23:30.307Z,47.72
2022-07-27T10:26:21.207Z,48.71
2022-07-27T10:28:58.518Z,49.21
2022-07-27T10:31:32.039Z,47.52
2022-07-27T10:34:05.240Z,47.49
2022-07-27T10:36:54.523Z,47.69
2022-07-27T10:39:35.972Z,46.32
2022-07-27T10:42:24.535Z,42.26
2022-07-27T10:45:03.961Z,41.45
2022-07-27T10:47:38.023Z,39.93
2022-07-27T10:50:26.603Z,38.63
2022-07-27T10:53:11.423Z,37.69
2022-07-27T10:55:54.864Z,37.79
2022-07-27T10:58:48.128Z,37.23
2022-07-27T11:01:21.548Z,34.62
2022-07-27T11:03:56.201Z,36.38
2022-07-27T11:06:39.829Z,33.58
2022-07-27T11:10:02.429Z,32.15
2022-07-27T11:12:13.750Z,32.20
2022-07-27T11:14:49.558Z,30.90
2022-07-27T11:20:14.692Z,28.71
2022-07-27T11:23:26.691Z,29.75
2022-07-27T11:25:37.557Z,32.04
2022-07-27T11:28:10.043Z,37.19
2022-07-27T11:30:40.166Z,37.83
2022-07-27T11:33:10.264Z,37.03
2022-07-27T11:35:40.305Z,36.13
2022-07-27T11:38:10.355Z,33.21
2022-07-27T11:40:56.957Z,32.13
2022-07-27T11:43:43.985Z,29.82
2022-07-27T11:46:25.591Z,28.64
2022-07-27T11:49:17.570Z,27.80
2022-07-27T11:51:51.362Z,24.96
2022-07-27T11:54:25.276Z,24.67
2022-07-27T11:57:00.953Z,28.72
2022-07-27T11:59:33.399Z,28.48
2022-07-27T12:02:08.637Z,27.52
2022-07-27T12:04:41.198Z,27.19
2022-07-27T12:07:15.848Z,28.34
2022-07-27T12:09:48.986Z,29.73
2022-07-27T12:12:24.209Z,31.80
2022-07-27T12:14:57.352Z,32.70
2022-07-27T12:17:33.425Z,32.95
2022-07-27T12:20:07.243Z,34.62
2022-07-27T12:22:40.231Z,35.48
2022-07-27T12:25:16.188Z,36.18
2022-07-27T12:28:01.928Z,33.30
2022-07-27T12:30:37.441Z,32.12
2022-07-27T12:33:10.922Z,30.28
2022-07-27T12:35:48.028Z,28.56
2022-07-27T12:38:18.244Z,27.67
2022-07-27T12:40:56.746Z,25.58
2022-07-27T12:43:31.674Z,25.53
2022-07-27T12:46:02.067Z,26.02
2022-07-27T12:48:42.445Z,27.91
2022-07-27T12:51:13.918Z,28.20
2022-07-27T12:53:43.883Z,28.55
2022-07-27T12:56:13.843Z,31.01
2022-07-27T12:59:01.904Z,32.77
2022-07-27T13:01:32.010Z,32.13
2022-07-27T13:04:02.045Z,32.52
2022-07-27T13:06:33.791Z,29.90
2022-07-27T13:09:03.784Z,29.73
2022-07-27T13:11:33.847Z,28.73
2022-07-27T13:14:07.710Z,30.56
2022-07-27T13:16:37.765Z,28.81
2022-07-27T13:19:07.745Z,28.32
2022-07-27T13:21:37.856Z,29.30
2022-07-27T13:24:10.312Z,29.53
2022-07-27T13:26:41.312Z,29.17
2022-07-27T13:29:14.431Z,27.51
2022-07-27T13:31:51.092Z,27.45
2022-07-27T13:34:25.435Z,27.89
2022-07-27T13:36:55.704Z,29.56
2022-07-27T13:39:25.872Z,30.95
2022-07-27T13:41:56.239Z,32.96
2022-07-27T13:45:00.610Z,31.44
2022-07-27T13:47:18.803Z,30.44
2022-07-27T13:49:48.797Z,30.22
2022-07-27T13:52:18.756Z,30.79
2022-07-27T13:54:48.766Z,30.73
2022-07-27T13:57:18.790Z,30.63
2022-07-27T13:59:51.360Z,29.73
2022-07-27T14:02:23.247Z,29.38
2022-07-27T14:04:55.871Z,26.19
2022-07-27T14:07:28.383Z,25.33
2022-07-27T14:10:11.246Z,29.37
2022-07-27T14:12:41.426Z,30.75
2022-07-27T14:15:14.843Z,28.83
2022-07-27T14:17:44.835Z,28.29
2022-07-27T14:20:15.585Z,27.95
2022-07-27T14:22:45.648Z,26.91
2022-07-27T14:25:15.712Z,28.96
2022-07-27T14:27:46.085Z,31.83
2022-07-27T14:30:20.932Z,31.14
2022-07-27T14:32:51.422Z,31.27
2022-07-27T14:35:23.086Z,30.90
2022-07-27T14:37:53.212Z,30.80
2022-07-27T14:40:23.196Z,30.31
2022-07-27T14:42:53.391Z,29.24
2022-07-27T14:45:45.172Z,29.79
2022-07-27T14:48:25.441Z,28.48
2022-07-27T14:51:03.536Z,29.03
2022-07-27T14:53:33.832Z,30.52
2022-07-27T14:56:03.852Z,30.91
2022-07-27T14:58:33.918Z,30.68
2022-07-27T15:01:06.864Z,30.86
2022-07-27T15:03:36.993Z,31.24
2022-07-27T15:06:07.289Z,30.25
2022-07-27T15:08:37.312Z,33.35
2022-07-27T15:11:07.507Z,32.98
2022-07-27T15:13:37.451Z,33.79
2022-07-27T15:16:12.066Z,32.54
2022-07-27T15:18:42.306Z,31.09
2022-07-27T15:21:13.301Z,30.63
2022-07-27T15:23:45.841Z,29.79
2022-07-27T15:26:16.199Z,29.46
2022-07-27T15:28:46.641Z,29.84
2022-07-27T15:31:19.816Z,28.69
2022-07-27T15:33:49.809Z,29.24
2022-07-27T15:36:31.809Z,28.48
2022-07-27T15:39:04.446Z,27.83
2022-07-27T15:41:37.174Z,28.30
2022-07-27T15:44:07.761Z,28.74
2022-07-27T15:46:40.600Z,28.12
2022-07-27T15:49:11.145Z,28.21
2022-07-27T15:51:41.499Z,29.44
2022-07-27T15:54:11.824Z,29.31
2022-07-27T15:56:41.841Z,28.66
2022-07-27T15:59:12.770Z,29.64
2022-07-27T16:01:47.284Z,31.27
2022-07-27T16:04:17.417Z,32.54
2022-07-27T16:06:47.626Z,33.85
2022-07-27T16:09:17.827Z,33.22
2022-07-27T16:11:48.279Z,35.52
2022-07-27T16:14:18.238Z,37.68
2022-07-27T16:16:51.917Z,36.98
2022-07-27T16:19:21.944Z,34.74
2022-07-27T16:21:53.383Z,32.89
2022-07-27T16:24:26.963Z,33.32
2022-07-27T16:26:57.658Z,35.28
2022-07-27T16:29:28.152Z,36.15
2022-07-27T16:32:01.412Z,36.03
2022-07-27T16:34:35.260Z,34.32
2022-07-27T16:37:05.486Z,35.60
2022-07-27T16:39:36.900Z,34.41
2022-07-27T16:42:07.270Z,33.49
2022-07-27T16:44:40.140Z,33.31
2022-07-27T16:47:12.987Z,32.34
2022-07-27T16:49:43.183Z,31.22
2022-07-27T16:52:13.235Z,28.83
2022-07-27T16:54:43.170Z,33.55
2022-07-27T16:57:13.243Z,33.51
2022-07-27T16:59:43.336Z,33.03
2022-07-27T17:02:16.069Z,30.28
2022-07-27T17:04:46.139Z,31.58
2022-07-27T17:07:16.153Z,31.85
2022-07-27T17:09:46.097Z,33.28
2022-07-27T17:12:17.300Z,34.87
2022-07-27T17:14:48.066Z,34.04
2022-07-27T17:17:20.742Z,33.55
2022-07-27T17:19:50.715Z,32.89
2022-07-27T17:22:20.781Z,34.74
2022-07-27T17:24:50.801Z,35.79
2022-07-27T17:27:21.022Z,35.20
2022-07-27T17:29:51.651Z,34.17
2022-07-27T17:32:24.337Z,32.48
2022-07-27T17:34:54.383Z,33.01
2022-07-27T17:37:24.888Z,32.57
2022-07-27T17:39:55.132Z,33.99
2022-07-27T17:42:25.669Z,35.56
2022-07-27T17:44:55.814Z,36.46
2022-07-27T17:47:28.730Z,36.83
2022-07-27T17:49:59.161Z,36.06
2022-07-27T17:52:29.410Z,39.10
2022-07-27T17:54:59.445Z,39.21
2022-07-27T17:57:29.497Z,38.17
2022-07-27T17:59:59.629Z,37.11
2022-07-27T18:02:32.407Z,38.96
2022-07-27T18:05:02.513Z,40.17
2022-07-27T18:07:38.903Z,41.19
2022-07-27T18:10:12.334Z,42.16
2022-07-27T18:12:42.322Z,42.22
2022-07-27T18:15:25.698Z,41.06
2022-07-27T18:17:58.774Z,40.73
2022-07-27T18:20:28.948Z,41.46
2022-07-27T18:22:59.258Z,42.12
2022-07-27T18:25:29.435Z,42.56
2022-07-27T18:27:59.425Z,43.92
2022-07-27T18:30:29.928Z,44.37
2022-07-27T18:33:02.525Z,44.35
2022-07-27T18:35:32.773Z,45.70
2022-07-27T18:38:04.514Z,46.13
2022-07-27T18:40:34.508Z,46.46
2022-07-27T18:43:04.891Z,46.18
2022-07-27T18:45:35.483Z,46.99
2022-07-27T18:48:10.051Z,47.13
2022-07-27T18:50:41.448Z,47.73
2022-07-27T18:53:12.197Z,48.48
2022-07-27T18:55:42.182Z,48.58
2022-07-27T18:58:12.114Z,48.19
2022-07-27T19:00:42.714Z,48.46
2022-07-27T19:03:15.342Z,48.71
2022-07-27T19:05:47.094Z,48.70
2022-07-27T19:08:17.656Z,50.48
2022-07-27T19:10:47.862Z,49.23
2022-07-27T19:13:17.909Z,49.78
2022-07-27T19:15:48.018Z,50.43
2022-07-27T19:18:20.819Z,50.61
2022-07-27T19:20:52.041Z,50.35
2022-07-27T19:23:22.029Z,51.65
2022-07-27T19:25:52.201Z,51.88
2022-07-27T19:28:24.615Z,51.89
2022-07-27T19:30:54.601Z,51.95
2022-07-27T19:33:27.243Z,52.27
2022-07-27T19:35:58.149Z,53.00
2022-07-27T19:38:28.272Z,53.30
2022-07-27T19:40:58.533Z,54.29
2022-07-27T19:43:28.842Z,54.41
2022-07-27T19:45:58.928Z,56.08
2022-07-27T19:48:31.651Z,56.23
2022-07-27T19:51:06.797Z,57.04
2022-07-27T19:53:39.260Z,58.31
2022-07-27T19:56:11.256Z,58.43
2022-07-27T19:58:41.241Z,59.40
2022-07-27T20:01:11.720Z,59.42
2022-07-27T20:03:53.338Z,59.79
2022-07-27T20:06:26.524Z,59.96
2022-07-27T20:08:59.817Z,59.24
2022-07-27T20:11:31.375Z,59.34
2022-07-27T20:14:02.585Z,58.50
2022-07-27T20:16:34.336Z,58.63
2022-07-27T20:19:07.628Z,57.91
2022-07-27T20:21:39.272Z,58.03
2022-07-27T20:24:10.422Z,57.30
2022-07-27T20:26:41.281Z,56.97
2022-07-27T20:29:13.597Z,56.89
2022-07-27T20:31:43.971Z,57.60
2022-07-27T20:34:16.971Z,58.26
2022-07-27T20:36:48.267Z,57.88
2022-07-27T20:39:18.963Z,56.95
2022-07-27T20:41:49.538Z,57.68
2022-07-27T20:44:20.929Z,56.28
2022-07-27T20:46:51.304Z,57.71
2022-07-27T20:49:24.962Z,55.46
2022-07-27T20:51:55.028Z,55.29
2022-07-27T20:54:29.224Z,55.08
2022-07-27T20:56:59.665Z,54.83
2022-07-27T20:59:30.706Z,54.33
2022-07-27T21:02:00.729Z,55.05
2022-07-27T21:04:33.320Z,56.60
2022-07-27T21:07:03.294Z,56.47
2022-07-27T21:09:33.866Z,56.83
2022-07-27T21:12:04.066Z,57.54
2022-07-27T21:14:34.061Z,57.14
2022-07-27T21:17:04.218Z,57.93
2022-07-27T21:19:36.857Z,58.49
2022-07-27T21:22:07.278Z,58.20
2022-07-27T21:24:37.294Z,58.48
2022-07-27T21:27:09.071Z,59.00
2022-07-27T21:29:39.643Z,60.28
2022-07-27T21:32:10.023Z,60.94
2022-07-27T21:34:42.591Z,62.50
2022-07-27T21:37:12.618Z,61.98
2022-07-27T21:39:42.739Z,62.24
2022-07-27T21:42:12.741Z,63.58
2022-07-27T21:44:42.769Z,63.54
2022-07-27T21:47:14.448Z,63.58
2022-07-27T21:49:47.296Z,63.65
2022-07-27T21:52:17.269Z,65.44
2022-07-27T21:54:47.244Z,65.78
2022-07-27T21:57:17.533Z,67.46
2022-07-27T21:59:47.643Z,67.30
2022-07-27T22:02:17.678Z,67.84
2022-07-27T22:04:50.269Z,72.78
2022-07-27T22:07:20.214Z,70.67
2022-07-27T22:09:50.228Z,70.87
2022-07-27T22:12:20.226Z,68.78
2022-07-27T22:14:50.327Z,71.54
2022-07-27T22:17:20.288Z,70.65
2022-07-27T22:19:53.077Z,70.50
2022-07-27T22:22:23.040Z,71.09
2022-07-27T22:24:53.157Z,65.19
2022-07-27T22:27:23.524Z,64.12
2022-07-27T22:29:53.511Z,64.80
2022-07-27T22:32:23.747Z,66.45
2022-07-27T22:34:56.707Z,64.24
2022-07-27T22:37:26.733Z,66.55
2022-07-27T22:39:57.200Z,65.78
2022-07-27T22:42:29.206Z,64.38
2022-07-27T22:44:59.991Z,63.97
2022-07-27T22:47:30.045Z,64.86
2022-07-27T22:50:02.641Z,65.06
2022-07-27T22:52:32.832Z,64.10
2022-07-27T22:55:04.574Z,63.39
2022-07-27T22:57:34.786Z,63.67
2022-07-27T23:00:05.538Z,62.13
2022-07-27T23:02:35.882Z,62.34
2022-07-27T23:05:10.189Z,62.83
2022-07-27T23:07:40.583Z,62.15
2022-07-27T23:10:33.166Z,64.22
2022-07-27T23:13:03.393Z,63.36
2022-07-27T23:15:33.849Z,63.93
2022-07-27T23:18:03.795Z,62.44
2022-07-27T23:20:37.297Z,62.26
2022-07-27T23:23:15.417Z,61.44
2022-07-27T23:25:47.290Z,60.36
2022-07-27T23:28:17.961Z,61.02
2022-07-27T23:30:48.087Z,61.78
2022-07-27T23:33:18.092Z,62.59
2022-07-27T23:35:50.718Z,62.96
2022-07-27T23:38:20.797Z,63.17
2022-07-27T23:40:50.992Z,62.17
2022-07-27T23:43:20.990Z,62.96
2022-07-27T23:45:51.017Z,64.67
2022-07-27T23:48:21.641Z,64.86
2022-07-27T23:50:57.886Z,65.97
2022-07-27T23:53:28.487Z,66.44
2022-07-27T23:55:58.535Z,66.77
2022-07-27T23:58:28.537Z,68.27
